Time;durP1;ratioP1;P1;durP2;ratioP2;P2;SDS_P1;SDS_P2;PMS_P1;PMS_P2;Temp;Humidity;BMP_temperature;BMP_pressure;BME280_temperature;BME280_humidity;BME280_pressure;Samples;Min_cycle;Max_cycle;Signal;HPM_P1;HPM_P2
2022/02/01 00:00:46;;;;;;;22.03;10.83;;;2.40;99.90;;;3.16;100.00;-19834.34;5113666;28;20666;-63
2022/02/01 00:03:16;;;;;;;18.37;11.63;;;2.40;99.90;;;3.17;100.00;-19834.69;5113513;28;20225;-63
2022/02/01 00:05:50;;;;;;;20.10;11.90;;;2.40;99.90;;;3.25;100.00;-19837.44;5113779;28;20223;-64
2022/02/01 00:08:28;;;;;;;22.07;11.20;;;2.40;99.90;;;3.12;100.00;-19833.00;5113698;28;20222;-63
2022/02/01 00:11:05;;;;;;;21.33;10.97;;;2.40;99.90;;;3.24;100.00;-19837.28;5113869;28;20307;-63
2022/02/01 00:13:41;;;;;;;20.77;10.93;;;2.40;99.90;;;3.21;100.00;-19836.25;5113515;28;20227;-63
2022/02/01 00:35:41;;;;;;;24.57;11.43;;;2.60;99.90;;;3.36;100.00;-19841.38;5112815;28;20272;-63
2022/02/01 00:38:18;;;;;;;20.40;11.03;;;2.50;99.90;;;3.24;100.00;-19837.09;5112773;28;20268;-63
2022/02/01 00:40:53;;;;;;;20.70;11.50;;;2.50;99.90;;;3.44;100.00;-19843.94;5112876;28;20247;-63
2022/02/01 00:43:22;;;;;;;18.87;11.37;;;2.50;99.90;;;3.35;100.00;-19840.84;5112683;28;20226;-62
2022/02/01 00:45:50;;;;;;;22.60;11.47;;;2.50;99.90;;;3.43;100.00;-19843.59;5112841;28;20249;-63
2022/02/01 00:48:19;;;;;;;24.87;13.00;;;2.50;99.90;;;3.50;100.00;-19846.16;5113023;28;20184;-63
2022/02/01 00:50:47;;;;;;;26.03;14.03;;;2.50;99.90;;;3.46;100.00;-19844.78;5112717;28;20997;-63
2022/02/01 00:53:15;;;;;;;25.00;13.50;;;2.60;99.90;;;3.56;100.00;-19848.22;5112758;28;20259;-63
2022/02/01 00:55:44;;;;;;;24.90;13.40;;;2.60;99.90;;;3.58;100.00;-19848.72;5112512;28;20718;-62
2022/02/01 00:58:12;;;;;;;23.03;13.93;;;2.60;99.90;;;3.66;100.00;-19851.63;5112143;28;20231;-63
2022/02/01 01:00:40;;;;;;;21.90;13.90;;;2.60;99.90;;;3.46;100.00;-19844.78;5112563;28;20215;-62
2022/02/01 01:03:09;;;;;;;24.40;14.30;;;2.60;99.90;;;3.59;100.00;-19849.06;5112796;28;20209;-62
2022/02/01 01:05:38;;;;;;;23.23;13.67;;;2.60;99.90;;;3.54;100.00;-19847.34;5112475;28;20227;-63
2022/02/01 01:08:07;;;;;;;25.83;14.73;;;2.60;99.90;;;3.48;100.00;-19845.31;5112368;28;20588;-63
2022/02/01 01:10:36;;;;;;;23.37;14.13;;;2.60;99.90;;;3.50;100.00;-19846.16;5112305;28;20325;-62
2022/02/01 01:13:15;;;;;;;23.33;14.20;;;2.60;99.90;;;3.42;100.00;-19843.25;5111553;28;20223;-63
2022/02/01 01:15:52;;;;;;;26.33;13.47;;;2.60;99.90;;;3.45;100.00;-19844.44;5104733;28;20722;-63
2022/02/01 01:43:41;;;;;;;22.47;12.23;;;2.40;99.90;;;3.36;100.00;-19841.38;5091305;28;20726;-63
2022/02/01 01:54:31;;;;;;;22.77;12.50;;;2.40;99.90;;;3.27;100.00;-19838.28;5091483;28;20555;-63
2022/02/01 01:57:00;;;;;;;20.00;12.27;;;2.40;99.90;;;3.56;100.00;-19848.22;5091729;28;20240;-63
2022/02/01 01:59:28;;;;;;;22.20;12.30;;;2.40;99.90;;;3.44;100.00;-19844.09;5090934;28;20258;-62
2022/02/01 02:01:56;;;;;;;17.67;11.70;;;2.50;99.90;;;3.30;100.00;-19839.31;5109980;28;20255;-63
2022/02/01 02:04:24;;;;;;;18.60;11.70;;;2.40;99.90;;;3.33;100.00;-19840.34;5111230;28;20246;-64
2022/02/01 02:06:54;;;;;;;19.10;12.20;;;2.40;99.90;;;3.28;100.00;-19838.47;5111568;28;20219;-63
2022/02/01 02:09:22;;;;;;;16.30;11.63;;;2.40;99.90;;;3.30;100.00;-19839.16;5111968;28;20234;-63
2022/02/01 02:11:56;;;;;;;19.33;11.93;;;2.50;99.90;;;3.23;100.00;-19836.75;5110930;28;20284;-63
2022/02/01 02:14:25;;;;;;;19.23;12.23;;;2.40;99.90;;;3.09;100.00;-19831.97;5110935;28;20245;-63
2022/02/01 02:16:57;;;;;;;19.87;11.87;;;2.40;99.90;;;3.12;100.00;-19833.16;5094434;28;20245;-63
2022/02/01 02:19:27;;;;;;;16.53;11.43;;;2.30;99.90;;;3.29;100.00;-19838.81;5090591;28;20277;-63
2022/02/01 02:22:00;;;;;;;16.73;11.30;;;2.40;99.90;;;3.31;100.00;-19839.50;5091107;28;20220;-63
2022/02/01 02:24:32;;;;;;;17.10;11.10;;;2.30;99.90;;;3.14;100.00;-19833.84;5090446;28;20263;-68
2022/02/01 02:27:01;;;;;;;22.70;12.17;;;2.40;99.90;;;2.99;100.00;-19828.53;5091434;28;20215;-68
2022/02/01 02:29:30;;;;;;;19.10;11.63;;;2.30;99.90;;;2.95;100.00;-19827.19;5090655;28;20228;-68
2022/02/01 02:31:59;;;;;;;19.23;12.00;;;2.20;99.90;;;2.78;100.00;-19821.38;5090853;28;20739;-68
2022/02/01 02:34:27;;;;;;;18.87;11.73;;;2.20;99.90;;;2.85;100.00;-19823.94;5090440;28;20235;-68
2022/02/01 02:37:00;;;;;;;19.57;11.60;;;2.10;99.90;;;2.85;100.00;-19823.75;5090584;28;20247;-63
2022/02/01 02:39:32;;;;;;;22.53;12.07;;;2.10;99.90;;;3.08;100.00;-19831.63;5091121;28;20299;-64
2022/02/01 02:42:11;;;;;;;22.17;12.20;;;2.20;99.90;;;3.11;100.00;-19832.66;5091323;28;20682;-63
2022/02/01 02:47:30;;;;;;;22.87;12.40;;;2.30;99.90;;;3.17;100.00;-19834.69;5090746;28;20303;-63
2022/02/01 02:49:59;;;;;;;20.83;11.70;;;2.30;99.90;;;3.16;100.00;-19834.34;5090155;28;20224;-63
2022/02/01 02:52:29;;;;;;;23.60;12.23;;;2.30;99.90;;;3.17;100.00;-19834.69;5090479;28;20273;-63
2022/02/01 02:54:58;;;;;;;17.67;10.77;;;2.30;99.90;;;3.25;100.00;-19837.44;5090454;28;20280;-63
2022/02/01 02:57:27;;;;;;;18.90;11.87;;;2.30;99.90;;;3.21;100.00;-19836.25;5090876;28;20206;-64
2022/02/01 02:59:56;;;;;;;19.50;11.13;;;2.40;99.90;;;3.27;100.00;-19838.13;5092922;28;20196;-63
2022/02/01 03:02:24;;;;;;;19.73;10.83;;;2.40;99.90;;;3.25;100.00;-19837.44;5110481;28;20219;-64
2022/02/01 03:04:52;;;;;;;17.90;10.77;;;2.40;99.90;;;3.18;100.00;-19835.03;5110392;28;20223;-62
2022/02/01 03:07:20;;;;;;;22.53;12.17;;;2.40;99.90;;;3.27;100.00;-19838.28;5110550;28;20306;-67
2022/02/01 03:09:50;;;;;;;19.07;10.90;;;2.40;99.90;;;3.20;100.00;-19835.91;5110570;28;20223;-68
2022/02/01 03:12:32;;;;;;;21.47;10.83;;;2.40;99.90;;;3.30;100.00;-19839.16;5111422;28;20211;-68
2022/02/01 03:15:21;;;;;;;19.50;10.60;;;2.40;99.90;;;3.32;100.00;-19839.81;5109939;28;20434;-63
2022/02/01 03:20:35;;;;;;;16.37;10.40;;;2.40;99.90;;;3.27;100.00;-19838.13;5089939;28;20231;-63
2022/02/01 03:23:03;;;;;;;16.83;9.87;;;2.40;99.90;;;3.49;100.00;-19845.81;5090390;28;20231;-63
2022/02/01 03:25:32;;;;;;;17.57;9.73;;;2.50;99.90;;;3.35;100.00;-19840.84;5090172;28;20247;-63
2022/02/01 03:28:01;;;;;;;17.97;9.27;;;2.50;99.90;;;3.21;100.00;-19836.25;5090216;28;20312;-63
2022/02/01 03:30:29;;;;;;;15.20;9.47;;;2.50;99.90;;;3.34;100.00;-19840.50;5089915;28;20257;-63
2022/02/01 03:32:57;;;;;;;16.30;9.17;;;2.50;99.90;;;3.44;100.00;-19843.94;5090394;28;20251;-62
2022/02/01 03:35:25;;;;;;;16.03;8.70;;;2.50;99.90;;;3.44;100.00;-19843.94;5089914;28;20704;-64
2022/02/01 03:37:53;;;;;;;13.97;9.20;;;2.50;99.90;;;3.37;100.00;-19841.72;5093669;28;20665;-64
2022/02/01 03:40:21;;;;;;;16.50;8.70;;;2.50;99.90;;;3.43;100.00;-19843.59;5093763;28;20229;-64
2022/02/01 03:42:51;;;;;;;17.50;10.23;;;2.60;99.90;;;3.48;100.00;-19845.31;5093560;28;20227;-63
2022/02/01 03:45:19;;;;;;;17.23;9.40;;;2.50;99.90;;;3.33;100.00;-19840.34;5093994;28;20291;-63
2022/02/01 03:47:47;;;;;;;16.23;9.33;;;2.50;99.90;;;3.40;100.00;-19842.56;5093264;28;20229;-63
2022/02/01 03:50:15;;;;;;;15.10;8.97;;;2.50;99.90;;;3.29;100.00;-19838.81;5093502;28;20235;-63
2022/02/01 03:52:43;;;;;;;13.97;8.83;;;2.50;99.90;;;3.42;100.00;-19843.25;5093352;28;20227;-63
2022/02/01 03:55:12;;;;;;;11.50;8.10;;;2.50;99.90;;;3.41;100.00;-19843.09;5093344;28;20662;-63
2022/02/01 03:57:40;;;;;;;13.57;8.13;;;2.60;99.90;;;3.49;100.00;-19845.63;5093379;28;20237;-64
2022/02/01 04:00:11;;;;;;;14.77;7.47;;;2.60;99.90;;;3.57;100.00;-19848.38;5097859;28;20314;-64
2022/02/01 04:02:39;;;;;;;15.83;8.47;;;2.60;99.90;;;3.44;100.00;-19844.09;5113862;28;20250;-68
2022/02/01 04:05:08;;;;;;;15.00;7.93;;;2.60;99.90;;;3.48;100.00;-19845.31;5112944;28;20235;-68
2022/02/01 04:07:36;;;;;;;11.43;7.20;;;2.60;99.90;;;3.38;100.00;-19842.06;5113410;28;20261;-68
2022/02/01 04:10:06;;;;;;;15.07;7.63;;;2.60;99.90;;;3.22;100.00;-19836.59;5113453;28;20250;-68
2022/02/01 04:12:34;;;;;;;12.60;7.63;;;2.50;99.90;;;3.33;100.00;-19840.19;5113174;28;20211;-64
2022/02/01 04:15:02;;;;;;;16.47;7.60;;;2.50;99.90;;;3.20;100.00;-19835.72;5112707;28;20228;-63
2022/02/01 04:17:31;;;;;;;11.90;7.27;;;2.50;99.90;;;3.15;100.00;-19834.19;5093002;28;20294;-63
2022/02/01 04:19:59;;;;;;;12.43;7.93;;;2.40;99.90;;;3.14;100.00;-19833.69;5092951;28;20611;-64
2022/02/01 04:22:27;;;;;;;13.17;7.57;;;2.40;99.90;;;3.14;100.00;-19833.84;5093016;28;20271;-62
2022/02/01 04:24:55;;;;;;;12.47;7.83;;;2.40;99.90;;;3.14;100.00;-19833.69;5092882;28;20273;-64
2022/02/01 04:27:30;;;;;;;13.50;7.77;;;2.40;99.90;;;3.38;100.00;-19841.88;5093084;28;20294;-63
2022/02/01 04:30:07;;;;;;;11.70;7.30;;;2.40;99.90;;;3.41;100.00;-19843.09;5093277;28;20211;-62
2022/02/01 04:32:39;;;;;;;10.17;6.97;;;2.50;99.90;;;3.35;100.00;-19841.03;5092584;28;20220;-63
2022/02/01 04:35:10;;;;;;;14.57;8.20;;;2.50;99.90;;;3.38;100.00;-19842.06;5093308;28;20247;-68
2022/02/01 04:37:39;;;;;;;13.60;8.90;;;2.50;99.90;;;3.58;100.00;-19848.91;5094061;28;20725;-67
2022/02/01 04:40:11;;;;;;;11.77;7.60;;;2.50;99.90;;;3.45;100.00;-19844.44;5093297;28;20248;-67
2022/02/01 04:42:41;;;;;;;12.27;8.37;;;2.50;99.90;;;3.46;100.00;-19844.78;5093642;28;20261;-68
2022/02/01 04:45:14;;;;;;;12.37;7.40;;;2.60;99.90;;;3.45;100.00;-19844.28;5095462;28;20195;-68
2022/02/01 04:47:45;;;;;;;12.90;7.70;;;2.60;99.90;;;3.54;100.00;-19847.34;5091626;28;20631;-69
2022/02/01 04:50:18;;;;;;;13.03;7.90;;;2.60;99.90;;;3.58;100.00;-19848.72;5092287;28;20741;-68
2022/02/01 04:52:51;;;;;;;12.87;7.97;;;2.80;99.90;;;3.54;100.00;-19847.34;5092542;28;20277;-68
2022/02/01 04:55:21;;;;;;;13.40;7.90;;;2.60;99.90;;;3.58;100.00;-19848.72;5092771;28;20306;-68
2022/02/01 04:57:56;;;;;;;12.30;7.47;;;2.60;99.90;;;3.59;100.00;-19849.06;5092380;28;20219;-69
2022/02/01 05:00:27;;;;;;;13.53;7.93;;;2.60;99.90;;;3.62;100.00;-19850.25;5098737;28;20262;-68
2022/02/01 05:02:58;;;;;;;11.23;8.33;;;2.70;99.90;;;3.62;100.00;-19850.09;5112938;28;20286;-67
2022/02/01 05:05:29;;;;;;;12.20;8.53;;;2.70;99.90;;;3.67;100.00;-19851.78;5112789;28;20223;-67
2022/02/01 05:08:01;;;;;;;14.43;8.47;;;2.70;99.90;;;3.68;100.00;-19852.31;5112485;28;20228;-67
2022/02/01 05:10:33;;;;;;;14.57;7.87;;;2.70;99.90;;;3.50;100.00;-19846.16;5112247;28;20223;-68
2022/02/01 05:13:28;;;;;;;15.33;9.47;;;2.60;99.90;;;3.61;100.00;-19849.75;5112297;28;20272;-68
2022/02/01 05:16:03;;;;;;;14.90;9.83;;;2.70;99.90;;;3.54;100.00;-19847.34;5103479;28;20231;-67
2022/02/01 05:18:43;;;;;;;15.57;9.27;;;2.70;99.90;;;3.43;100.00;-19843.59;5091431;28;20202;-67
2022/02/01 05:21:14;;;;;;;14.90;9.83;;;2.60;99.90;;;3.44;100.00;-19844.09;5092309;28;20623;-66
2022/02/01 05:23:42;;;;;;;16.67;10.13;;;2.50;99.90;;;3.37;100.00;-19841.72;5091738;28;20228;-68
2022/02/01 05:26:10;;;;;;;17.93;10.57;;;2.50;99.90;;;3.31;100.00;-19839.50;5091805;28;20237;-68
2022/02/01 05:28:38;;;;;;;17.60;11.47;;;2.50;99.90;;;3.19;100.00;-19835.38;5091572;28;20774;-67
2022/02/01 05:31:06;;;;;;;19.60;11.20;;;2.40;99.90;;;3.21;100.00;-19836.06;5091596;28;20236;-68
2022/02/01 05:33:37;;;;;;;16.53;10.70;;;2.40;99.90;;;3.21;100.00;-19836.06;5091392;28;20577;-68
2022/02/01 05:36:08;;;;;;;19.90;11.53;;;2.30;99.90;;;3.04;100.00;-19830.44;5092055;28;20275;-68
2022/02/01 05:38:37;;;;;;;17.53;11.50;;;2.20;99.90;;;2.81;100.00;-19822.56;5091306;28;20258;-69
2022/02/01 05:41:06;;;;;;;23.97;11.77;;;2.20;99.90;;;2.98;100.00;-19828.19;5091197;28;20230;-67
2022/02/01 05:43:36;;;;;;;20.97;13.43;;;2.10;99.90;;;2.76;100.00;-19820.84;5091566;28;20232;-64
2022/02/01 05:46:04;;;;;;;24.20;12.97;;;2.00;99.90;;;2.73;100.00;-19819.66;5091299;28;20235;-62
2022/02/01 05:48:32;;;;;;;20.67;12.97;;;2.00;99.90;;;2.76;100.00;-19820.84;5091051;28;20309;-63
2022/02/01 05:51:02;;;;;;;21.73;13.90;;;1.90;99.90;;;2.75;100.00;-19820.34;5091687;28;20672;-63
2022/02/01 05:53:30;;;;;;;24.17;15.50;;;1.90;99.90;;;2.77;100.00;-19821.19;5091050;28;20262;-63
2022/02/01 05:55:58;;;;;;;22.83;14.03;;;1.90;99.90;;;2.71;100.00;-19819.16;5091402;28;20255;-63
2022/02/01 05:58:26;;;;;;;21.97;13.70;;;1.90;99.90;;;2.74;100.00;-19820.00;5111072;28;20227;-63
2022/02/01 06:00:54;;;;;;;19.83;11.10;;;1.80;99.90;;;2.71;100.00;-19818.97;5111489;28;20317;-63
2022/02/01 06:03:23;;;;;;;16.30;10.33;;;1.90;99.90;;;2.82;100.00;-19822.91;5111905;28;20294;-63
2022/02/01 06:05:51;;;;;;;18.70;11.27;;;1.90;99.90;;;2.85;100.00;-19823.75;5111514;28;20269;-63
2022/02/01 06:08:20;;;;;;;22.77;12.00;;;1.90;99.90;;;2.73;100.00;-19819.66;5110734;28;20302;-64
2022/02/01 06:10:48;;;;;;;18.17;11.60;;;1.80;99.90;;;2.71;100.00;-19819.16;5111333;28;20227;-63
2022/02/01 06:13:16;;;;;;;18.43;11.40;;;1.90;99.90;;;2.71;100.00;-19818.97;5110869;28;20678;-68
2022/02/01 06:15:44;;;;;;;19.23;11.10;;;1.80;99.90;;;2.73;100.00;-19819.66;5103946;28;25679;-68
2022/02/01 06:18:13;;;;;;;18.33;10.83;;;1.80;99.90;;;2.69;100.00;-19818.28;5091400;28;20485;-69
2022/02/01 06:20:41;;;;;;;22.00;11.43;;;1.80;99.90;;;2.79;100.00;-19821.88;5090746;28;20276;-67
2022/02/01 06:23:14;;;;;;;19.33;11.37;;;1.90;99.90;;;2.99;100.00;-19828.53;5090732;28;20299;-67
2022/02/01 06:25:51;;;;;;;17.43;10.23;;;1.90;99.90;;;2.89;100.00;-19825.13;5091924;28;20266;-68
2022/02/01 06:28:22;;;;;;;17.50;10.53;;;2.00;99.90;;;2.97;100.00;-19828.03;5090795;28;20277;-69
2022/02/01 06:30:52;;;;;;;19.70;10.73;;;2.00;99.90;;;3.00;100.00;-19828.88;5090891;28;20243;-68
2022/02/01 06:33:21;;;;;;;14.57;9.23;;;2.00;99.90;;;3.04;100.00;-19830.44;5090899;28;20909;-68
2022/02/01 06:35:49;;;;;;;18.13;9.60;;;2.10;99.90;;;3.00;100.00;-19828.88;5090570;28;20220;-68
2022/02/01 06:38:18;;;;;;;15.93;9.90;;;2.10;99.90;;;2.97;100.00;-19827.88;5090462;28;20239;-68
2022/02/01 06:40:49;;;;;;;16.03;9.10;;;2.20;99.90;;;2.95;100.00;-19827.19;5090625;28;20231;-68
2022/02/01 06:43:17;;;;;;;13.10;8.90;;;2.20;99.90;;;3.08;100.00;-19831.63;5090554;28;20305;-68
2022/02/01 06:45:45;;;;;;;17.97;8.83;;;2.20;99.90;;;3.18;100.00;-19835.03;5090264;28;20309;-68
2022/02/01 06:48:14;;;;;;;13.70;8.10;;;2.20;99.90;;;3.08;100.00;-19831.78;5091377;28;20206;-68
2022/02/01 06:50:46;;;;;;;13.77;8.13;;;2.20;99.90;;;3.01;100.00;-19829.41;5090413;28;20234;-68
2022/02/01 06:53:14;;;;;;;15.23;8.83;;;2.30;99.90;;;3.14;100.00;-19833.69;5099108;28;20250;-68
2022/02/01 06:55:56;;;;;;;16.03;8.43;;;2.20;99.90;;;3.18;100.00;-19835.03;5110743;28;20717;-68
2022/02/01 06:58:25;;;;;;;11.70;7.37;;;2.30;99.90;;;3.06;100.00;-19830.94;5110877;28;20231;-68
2022/02/01 07:00:54;;;;;;;11.67;7.47;;;2.30;99.90;;;3.17;100.00;-19834.88;5110884;28;20223;-69
2022/02/01 07:03:22;;;;;;;12.63;7.03;;;2.30;99.90;;;3.16;100.00;-19834.34;5110772;28;20196;-69
2022/02/01 07:05:51;;;;;;;11.63;7.20;;;2.30;99.90;;;3.02;100.00;-19829.56;5110260;28;20434;-70
2022/02/01 07:08:19;;;;;;;14.77;7.20;;;2.30;99.90;;;3.35;100.00;-19841.03;5110270;28;20231;-70
2022/02/01 07:10:47;;;;;;;13.93;6.97;;;2.40;99.90;;;3.11;100.00;-19832.66;5110944;28;20310;-69
2022/02/01 07:13:16;;;;;;;13.83;6.70;;;2.40;99.90;;;3.12;100.00;-19833.16;5114604;28;20254;-68
2022/02/01 07:15:46;;;;;;;10.77;6.63;;;2.40;99.90;;;3.17;100.00;-19834.88;5114629;28;20252;-70
2022/02/01 07:18:14;;;;;;;12.43;6.80;;;2.40;99.90;;;3.08;100.00;-19831.78;5115184;28;20206;-70
2022/02/01 07:20:42;;;;;;;13.80;7.60;;;2.40;99.90;;;3.30;100.00;-19839.31;5114158;28;20310;-69
2022/02/01 07:23:14;;;;;;;16.80;7.80;;;2.40;99.90;;;3.17;100.00;-19834.88;5114280;28;20642;-69
2022/02/01 07:25:47;;;;;;;14.17;7.43;;;2.40;99.90;;;3.10;100.00;-19832.47;5114105;28;20752;-68
2022/02/01 07:28:17;;;;;;;13.97;7.93;;;2.40;99.90;;;3.20;100.00;-19835.72;5114204;28;21083;-69
2022/02/01 07:30:48;;;;;;;13.40;8.33;;;2.40;99.90;;;3.27;100.00;-19838.13;5105760;28;20515;-72
2022/02/01 07:33:17;;;;;;;16.63;9.27;;;2.40;99.90;;;3.41;100.00;-19843.09;5112469;28;20203;-71
2022/02/01 07:35:48;;;;;;;14.43;8.23;;;2.40;99.90;;;3.44;100.00;-19843.94;5110714;28;20714;-70
2022/02/01 07:38:21;;;;;;;13.77;7.87;;;2.50;99.90;;;3.50;100.00;-19846.00;5111122;28;20255;-71
2022/02/01 07:40:51;;;;;;;13.23;7.97;;;2.50;99.90;;;3.44;100.00;-19844.09;5110629;28;20637;-69
2022/02/01 07:43:21;;;;;;;14.87;7.70;;;2.60;99.90;;;3.35;100.00;-19840.84;5110623;28;20302;-70
2022/02/01 07:45:52;;;;;;;12.10;6.87;;;2.60;99.90;;;3.40;100.00;-19842.56;5110280;28;20221;-64
2022/02/01 07:48:20;;;;;;;11.17;6.63;;;2.60;99.90;;;3.66;100.00;-19851.44;5110845;28;20544;-63
2022/02/01 07:50:48;;;;;;;14.10;6.63;;;2.60;99.90;;;3.63;100.00;-19850.44;5109423;28;20305;-63
2022/02/01 07:53:16;;;;;;;11.90;6.10;;;2.70;99.90;;;3.64;100.00;-19850.78;5110341;28;20315;-63
2022/02/01 07:55:45;;;;;;;11.47;5.70;;;2.70;99.90;;;3.67;100.00;-19851.97;5109681;28;20227;-63
2022/02/01 07:58:13;;;;;;;9.43;5.77;;;2.70;99.90;;;3.58;100.00;-19848.72;5109717;28;20238;-60
2022/02/01 08:00:41;;;;;;;11.53;5.33;;;2.80;99.90;;;3.75;100.00;-19854.53;5109945;28;20211;-58
2022/02/01 08:03:12;;;;;;;11.23;6.30;;;2.80;99.90;;;3.63;100.00;-19850.59;5110810;28;20286;-67
2022/02/01 08:05:41;;;;;;;8.07;5.53;;;2.80;99.90;;;3.78;100.00;-19855.56;5109509;28;20315;-68
2022/02/01 08:08:09;;;;;;;10.03;4.83;;;2.90;99.90;;;3.98;100.00;-19862.22;5109802;28;20254;-68
2022/02/01 08:10:43;;;;;;;10.17;5.10;;;3.00;99.90;;;4.02;100.00;-19863.59;5110249;28;20246;-68
2022/02/01 08:21:53;;;;;;;8.07;3.37;;;3.10;99.90;;;4.33;100.00;-19874.19;5089697;28;20300;-67
2022/02/01 08:24:22;;;;;;;8.90;2.70;;;3.20;99.90;;;4.19;100.00;-19869.41;5088953;28;20186;-67
2022/02/01 08:26:50;;;;;;;12.33;3.23;;;3.20;99.90;;;4.22;100.00;-19870.59;5089059;28;20225;-65
2022/02/01 08:29:19;;;;;;;8.83;2.73;;;3.20;99.90;;;4.15;100.00;-19868.22;5089507;28;20231;-66
2022/02/01 08:31:49;;;;;;;12.67;3.43;;;3.20;99.90;;;4.19;100.00;-19869.56;5089004;28;20224;-58
2022/02/01 08:34:20;;;;;;;10.67;2.70;;;3.30;99.90;;;4.35;100.00;-19875.03;5089099;28;20735;-59
2022/02/01 08:36:49;;;;;;;11.23;2.47;;;3.30;99.90;;;4.37;100.00;-19875.72;5089018;28;20592;-60
2022/02/01 08:39:17;;;;;;;8.77;3.23;;;3.40;99.90;;;4.47;100.00;-19879.16;5090087;28;20204;-59
2022/02/01 08:41:45;;;;;;;12.57;2.83;;;3.40;99.90;;;4.45;100.00;-19878.47;5088439;28;20259;-59
2022/02/01 08:44:16;;;;;;;9.43;3.00;;;3.40;99.90;;;4.47;100.00;-19878.97;5089192;28;20643;-59
2022/02/01 08:46:44;;;;;;;14.10;3.47;;;3.50;99.90;;;4.54;100.00;-19881.38;5105486;28;20248;-70
2022/02/01 08:49:12;;;;;;;8.53;2.77;;;3.50;99.90;;;4.60;100.00;-19883.41;5108948;28;20228;-70
2022/02/01 08:51:44;;;;;;;9.47;3.07;;;3.60;99.90;;;4.46;100.00;-19878.81;5108940;28;20242;-70
2022/02/01 08:54:17;;;;;;;13.43;2.63;;;3.50;99.90;;;4.62;100.00;-19884.09;5109644;28;20206;-70
2022/02/01 08:59:33;;;;;;;8.93;2.23;;;3.60;99.90;;;4.61;100.00;-19883.75;5108729;28;20224;-70
2022/02/01 09:02:01;;;;;;;12.63;2.97;;;3.60;99.90;;;4.73;100.00;-19888.03;5108259;28;20609;-65
2022/02/01 09:04:30;;;;;;;12.20;2.93;;;3.70;99.90;;;4.77;100.00;-19889.41;5108782;28;20228;-64
2022/02/01 09:07:01;;;;;;;10.97;3.60;;;3.70;99.90;;;4.77;100.00;-19889.22;5108440;28;20302;-62
2022/02/01 09:09:31;;;;;;;10.90;2.90;;;3.80;99.90;;;4.82;100.00;-19891.09;5108377;28;20226;-65
2022/02/01 09:11:59;;;;;;;10.20;2.77;;;3.80;99.90;;;5.10;100.00;-19900.50;5108708;28;20552;-61
2022/02/01 09:14:28;;;;;;;8.17;2.13;;;3.90;99.90;;;4.98;100.00;-19896.59;5108315;28;20228;-63
2022/02/01 09:16:58;;;;;;;7.43;2.87;;;3.90;99.90;;;5.03;100.00;-19898.13;5090963;28;20746;-65
2022/02/01 09:19:27;;;;;;;8.00;2.80;;;4.00;99.90;;;5.09;100.00;-19900.16;5087863;28;20316;-65
2022/02/01 09:21:55;;;;;;;11.20;2.83;;;4.00;99.90;;;5.09;100.00;-19900.16;5087973;28;20313;-66
2022/02/01 09:24:24;;;;;;;11.57;2.73;;;4.10;99.90;;;5.25;100.00;-19905.47;5088662;28;20582;-70
2022/02/01 09:26:53;;;;;;;13.03;2.50;;;4.10;99.90;;;5.14;100.00;-19901.72;5087682;28;20316;-71
2022/02/01 09:29:22;;;;;;;10.77;2.40;;;4.10;99.90;;;5.40;100.00;-19910.75;5087725;28;20222;-66
2022/02/01 09:31:51;;;;;;;8.97;3.13;;;4.20;99.90;;;5.32;100.00;-19908.03;5087670;28;20264;-68
2022/02/01 09:34:21;;;;;;;15.07;4.50;;;4.20;99.90;;;5.47;100.00;-19912.97;5086892;28;20290;-67
2022/02/01 09:36:51;;;;;;;14.97;3.93;;;4.40;99.90;;;5.52;100.00;-19914.69;5087752;28;20250;-67
2022/02/01 09:39:21;;;;;;;12.40;2.70;;;4.40;99.90;;;5.52;100.00;-19914.88;5088451;28;20711;-67
2022/02/01 09:41:53;;;;;;;12.50;2.77;;;4.40;99.90;;;5.63;100.00;-19918.47;5094771;28;20764;-67
2022/02/01 09:44:22;;;;;;;12.63;2.97;;;4.40;99.90;;;5.69;100.00;-19920.50;5107858;28;20232;-67
2022/02/01 09:46:52;;;;;;;13.40;3.83;;;4.50;99.90;;;5.54;100.00;-19915.38;5107606;28;20229;-68
2022/02/01 09:49:24;;;;;;;11.23;3.07;;;4.50;99.90;;;5.87;100.00;-19926.66;5107870;28;20291;-67
2022/02/01 09:51:54;;;;;;;13.70;4.13;;;4.60;99.90;;;5.92;100.00;-19928.38;5107775;28;20722;-68
2022/02/01 09:54:25;;;;;;;10.87;2.50;;;4.70;99.90;;;5.81;100.00;-19924.59;5108867;28;20185;-67
2022/02/01 09:56:58;;;;;;;7.03;3.30;;;4.70;99.90;;;5.84;100.00;-19925.81;5107877;28;20238;-67
2022/02/01 09:59:32;;;;;;;11.33;2.77;;;4.70;99.90;;;5.92;100.00;-19928.38;5107681;28;20579;-68
2022/02/01 10:02:07;;;;;;;10.00;3.37;;;4.70;99.90;;;5.93;100.00;-19928.72;5107338;28;20647;-67
2022/02/01 10:04:36;;;;;;;11.33;3.63;;;4.70;99.90;;;5.83;100.00;-19925.31;5107885;28;20257;-66
2022/02/01 10:07:08;;;;;;;9.20;3.50;;;4.80;99.90;;;5.65;100.00;-19919.16;5107815;28;20233;-67
2022/02/01 10:09:49;;;;;;;14.23;4.03;;;4.60;99.90;;;5.68;100.00;-19920.34;5108196;28;20462;-66
2022/02/01 10:12:20;;;;;;;14.10;4.60;;;4.60;99.90;;;5.76;100.00;-19923.06;5108551;28;20189;-66
2022/02/01 10:14:55;;;;;;;9.90;3.37;;;4.70;99.90;;;5.49;100.00;-19913.66;5107725;28;20652;-66
2022/02/01 10:17:30;;;;;;;10.70;3.17;;;4.50;99.90;;;5.43;100.00;-19911.63;5087129;28;20420;-66
2022/02/01 10:19:58;;;;;;;14.17;2.80;;;4.40;99.90;;;5.52;100.00;-19914.69;5087144;28;20317;-66
2022/02/01 10:22:33;;;;;;;10.03;3.20;;;4.50;99.90;;;5.38;100.00;-19909.91;5087039;28;20639;-68
2022/02/01 10:25:04;;;;;;;10.70;3.20;;;4.40;99.90;;;5.43;100.00;-19911.78;5087719;28;20261;-67
2022/02/01 10:27:37;;;;;;;8.03;3.03;;;4.40;99.90;;;5.57;100.00;-19916.41;5086965;28;20217;-67
2022/02/01 10:30:11;;;;;;;11.30;3.73;;;4.50;99.90;;;5.59;100.00;-19917.25;5087743;28;20203;-66
2022/02/01 10:35:58;;;;;;;9.67;2.60;;;4.50;99.90;;;5.49;100.00;-19913.66;5024314;28;20235;-68
2022/02/01 10:38:34;;;;;;;7.07;2.10;;;4.50;99.90;;;5.50;100.00;-19914.19;5088469;28;20235;-67
2022/02/01 10:41:04;;;;;;;11.00;2.73;;;4.50;99.90;;;5.32;100.00;-19908.03;5107538;28;20307;-66
2022/02/01 10:43:35;;;;;;;10.50;3.30;;;4.50;99.90;;;5.38;100.00;-19910.06;5107148;28;20229;-68
2022/02/01 10:46:09;;;;;;;11.63;3.17;;;4.50;99.90;;;5.26;100.00;-19905.97;5107956;28;20224;-67
2022/02/01 10:48:39;;;;;;;9.77;2.87;;;4.40;99.90;;;5.38;100.00;-19909.91;5111353;28;20557;-66
2022/02/01 10:51:12;;;;;;;9.97;2.50;;;4.40;99.90;;;5.30;100.00;-19907.19;5112710;28;20241;-62
2022/02/01 10:53:43;;;;;;;8.93;3.40;;;4.40;99.90;;;5.29;100.00;-19906.84;5111573;28;20234;-62
2022/02/01 10:56:16;;;;;;;8.07;2.80;;;4.40;99.90;;;5.51;100.00;-19914.34;5111600;28;20251;-61
2022/02/01 10:58:47;;;;;;;5.27;2.73;;;4.40;99.90;;;5.64;100.00;-19918.78;5110744;28;20662;-62
2022/02/01 11:01:15;;;;;;;7.57;3.20;;;4.50;99.90;;;5.80;100.00;-19924.44;5111025;28;20313;-61
2022/02/01 11:03:48;;;;;;;10.00;2.40;;;4.60;99.90;;;5.98;100.00;-19930.44;5111188;28;20225;-62
2022/02/01 11:06:16;;;;;;;8.47;3.00;;;4.70;99.90;;;5.93;100.00;-19928.72;5114495;28;20199;-65
2022/02/01 11:08:46;;;;;;;8.87;3.47;;;4.80;99.90;;;6.01;100.00;-19931.63;5113699;28;20700;-64
2022/02/01 11:11:22;;;;;;;7.57;2.80;;;4.90;99.90;;;6.10;100.00;-19934.69;5114218;28;20704;-64
2022/02/01 11:13:52;;;;;;;7.07;2.90;;;4.90;99.90;;;5.98;100.00;-19930.59;5114193;28;20651;-64
2022/02/01 11:16:23;;;;;;;7.43;3.27;;;4.90;99.90;;;6.08;100.00;-19933.84;5114321;28;20283;-64
2022/02/01 11:18:58;;;;;;;9.83;2.50;;;5.00;99.90;;;6.10;100.00;-19934.69;5113954;28;20222;-64
2022/02/01 11:21:28;;;;;;;9.67;2.90;;;5.00;99.90;;;6.27;100.00;-19940.34;5114301;28;20190;-64
2022/02/01 11:24:00;;;;;;;7.70;2.83;;;5.10;99.90;;;6.36;100.00;-19943.25;5114513;28;20721;-63
2022/02/01 11:26:35;;;;;;;8.73;2.97;;;5.20;99.90;;;6.45;100.00;-19946.50;5113785;28;20227;-64
2022/02/01 11:29:28;;;;;;;7.50;2.83;;;5.20;99.90;;;6.28;100.00;-19940.69;5114064;28;20276;-64
2022/02/01 11:32:00;;;;;;;8.53;2.57;;;5.20;99.90;;;6.59;100.00;-19951.09;5110827;28;20215;-70
2022/02/01 11:34:33;;;;;;;5.27;2.27;;;5.30;99.90;;;6.59;100.00;-19951.09;5113576;28;20227;-70
2022/02/01 11:37:04;;;;;;;7.63;3.00;;;5.40;99.90;;;6.56;100.00;-19950.25;5114190;28;20225;-72